Reading, KS

11:02 PM CDT on August 21, 2014 (GMT -0500)
Billard Municipal | Change Station
CLOSE
Current Station
Airport
Location: Topeka,
Elevation: 886 ft
Nearby Weather Stations

Elev 886 ft 39.07 °N, 95.63 °W | Updated 9 minutes ago

Clear
Clear
88 °F
Feels Like 96 °F
N
15
Wind Variable Wind from South

Today
High -- | Low -- °F
--% Chance of Precip.
Yesterday
High -- | Low -- °F
Precip. -- in
6:43 AM 8:10 PM
Waning Crescent, 10% visible
Pressure 29.84 in
Visibility 10.0 miles
Clouds Clear
Heat Index 96 °F
Dew Point 74 °F
Humidity 63%
Rainfall 0.00 in
Snow Depth Not available.
UV 0 out of 12
Pollen 11.10 out of 12
Air Quality Not available.
Flu Activity Not available.
METAR KTOP 220353Z AUTO 19013KT 10SM CLR 31/23 A2988 RMK AO2 SLP105 T03110233

More Conditions Fewer Conditions

Pressure 29.84 in
Visibility 10.0 miles
Clouds Clear
Heat Index 96 °F
Dew Point 74 °F
Humidity 63%
Rainfall 0.00 in
Snow Depth Not available.
UV 0 out of 12
Pollen 11.10 out of 12
Air Quality Not available.
Flu Activity Not available.
METAR KTOP 220353Z AUTO 19013KT 10SM CLR 31/23 A2988 RMK AO2 SLP105 T03110233

More Conditions Fewer Conditions

10-Day Weather Forecast

Almanac

Astronomy

Aug. 21, 2014 Rise Set
Actual Time 6:43 AM CDT 8:10 PM CDT
Civil Twilight 6:15 AM CDT 8:37 PM CDT
Nautical Twilight 5:42 AM CDT 9:11 PM CDT
Astronomical Twilight 5:07 AM CDT 9:46 PM CDT
Moon 3:16 AM CDT (8/21) 5:38 PM CDT (8/21)
Length of Visible Light 14h 22m
Length of Day
13h 26m
Tomorrow will be 2m 17s shorter.
Waning Crescent, 10% of the Moon is Illuminated
Aug 22
Waning Crescent
Aug 25
New
Sep 2
First Quarter
Sep 8
Full
Sep 15
Last Quarter

Today's Extremes

State Highs State Lows

Community

WunderPhotos

Upload Photos

1,746,125 photos uploaded!

Nearby

Snow Depth

Station Depth Elevation
No new snow has been reported.

Earthquake Activity

City Distance Mag. Time & Date
Medford, Oklahoma 154 miles 2.7 2:28 AM CDT
2014-08-17
Medford, Oklahoma 153 miles 3.5 1:31 AM CDT
2014-08-17
Medford, Oklahoma 153 miles 3.8 1:18 AM CDT
2014-08-17
Medford, Oklahoma 160 miles 3.0 9:13 PM CDT
2014-08-16
Minimum magnitude displayed is 2.5.

Coastal Water Temperatures

Place Temperature
No Stations Reporting

Nearby Weather Stations